M I D A S
Marine Information and Data Acquisition System
Tripno 2330 of the Zeeleeuw from 2012-06-15 05:49:47 to 2012-06-15 12:38:19
Back to CruiseResearch ActivitiesStationsMapUnderway DataData graphs

EquipmentUnitsComment
TimeDGPSUTC
LatitudeDGPSDM.mWGS84
LongitudeDGPSDM.mWGS84
HeadingGyrodeg 
SOGDGPSknotsSpeed over ground
COGDGPSdegCourse over ground
DepthEcho soundermeters200 kHz
Missing or incorrect values are displayed as -999
Navigation data collected by the RV Zeeleeuw from 2012-06-15 05:20:34 to 2012-06-15 12:57:41
                                                                                    Next 1000 lines
Time Latitude Longitude Heading SOG COG Depth
2012-06-15 05:20:44 51°13.632 2°56.013 126.9 0.1 259 -999
2012-06-15 05:20:49 51°13.632 2°56.013 126.9 0.1 320 -999
2012-06-15 05:20:54 51°13.632 2°56.013 126.9 0.1 233 -999
2012-06-15 05:20:58 51°13.632 2°56.013 126.9 0.1 221 -999
2012-06-15 05:21:04 51°13.632 2°56.013 126.9 -999 16 -999
2012-06-15 05:21:09 51°13.632 2°56.013 126.9 0.1 138 -999
2012-06-15 05:21:13 51°13.632 2°56.013 126.9 -999 166 8
2012-06-15 05:21:18 51°13.632 2°56.013 126.9 -999 183 7.9
2012-06-15 05:21:23 51°13.632 2°56.013 126.9 -999 200 8
2012-06-15 05:21:28 51°13.632 2°56.013 126.9 0.1 263 5.9
2012-06-15 05:21:33 51°13.632 2°56.012 126.9 0.1 245 -999
2012-06-15 05:21:38 51°13.632 2°56.013 126.9 0.1 225 -999
2012-06-15 05:21:44 51°13.632 2°56.013 126.9 -999 297 -999
2012-06-15 05:21:49 51°13.632 2°56.013 126.9 -999 17 -999
2012-06-15 05:21:54 51°13.632 2°56.013 126.9 0.1 35 8
2012-06-15 05:21:58 51°13.632 2°56.013 126.9 0.1 52 8
2012-06-15 05:22:03 51°13.633 2°56.013 126.9 0.1 330 8
2012-06-15 05:22:08 51°13.633 2°56.013 126.9 0.1 305 -999
2012-06-15 05:22:13 51°13.632 2°56.013 126.9 0.1 240 -999
2012-06-15 05:22:18 51°13.632 2°56.013 126.9 0.1 233 -999
2012-06-15 05:22:23 51°13.632 2°56.013 126.9 0.1 336 -999
2012-06-15 05:22:27 51°13.632 2°56.014 126.9 0.1 31 8
2012-06-15 05:22:33 51°13.632 2°56.014 126.9 0.1 136 5.9
2012-06-15 05:22:37 51°13.632 2°56.013 126.9 0.1 113 8
2012-06-15 05:22:44 51°13.632 2°56.014 126.9 0.1 252 -999
2012-06-15 05:22:48 51°13.632 2°56.014 126.9 0.1 207 8
2012-06-15 05:22:54 51°13.632 2°56.015 126.9 0.1 216 -999
2012-06-15 05:22:59 51°13.632 2°56.015 126.9 -999 249 8
2012-06-15 05:23:04 51°13.632 2°56.015 126.9 -999 113 -999
2012-06-15 05:23:09 51°13.632 2°56.015 126.9 0.1 200 -999
2012-06-15 05:23:14 51°13.632 2°56.015 126.9 0.1 302 8
2012-06-15 05:23:19 51°13.632 2°56.016 126.9 0.1 264 -999
2012-06-15 05:23:23 51°13.632 2°56.016 126.9 0.1 206 -999
2012-06-15 05:23:29 51°13.631 2°56.016 126.9 0.1 207 -999
2012-06-15 05:23:34 51°13.631 2°56.016 126.9 -999 198 8
2012-06-15 05:23:39 51°13.632 2°56.015 126.9 0.1 231 -999
2012-06-15 05:23:43 51°13.632 2°56.016 127 -999 250 -999
2012-06-15 05:23:49 51°13.632 2°56.016 127 -999 95 -999
2012-06-15 05:23:54 51°13.632 2°56.016 127 0.1 172 8
2012-06-15 05:23:58 51°13.632 2°56.016 127 -999 313 7.9
2012-06-15 05:24:03 51°13.632 2°56.015 127 0.1 292 8
2012-06-15 05:24:07 51°13.632 2°56.015 127 0.1 275 -999
2012-06-15 05:24:14 51°13.632 2°56.015 127 0.1 276 -999
2012-06-15 05:24:19 51°13.632 2°56.016 127 0.1 260 -999
2012-06-15 05:24:23 51°13.632 2°56.016 127 0.1 165 -999
2012-06-15 05:24:28 51°13.632 2°56.016 127 -999 123 8
2012-06-15 05:24:34 51°13.632 2°56.016 127 0.1 281 -999
2012-06-15 05:24:39 51°13.632 2°56.016 127 -999 255 8
2012-06-15 05:24:43 51°13.632 2°56.016 127 -999 64 8
2012-06-15 05:24:49 51°13.632 2°56.015 127 0.1 296 -999
2012-06-15 05:24:54 51°13.632 2°56.015 127 0.1 288 -999
2012-06-15 05:24:59 51°13.632 2°56.014 127 0.1 293 -999
2012-06-15 05:25:03 51°13.632 2°56.015 127 0.1 298 -999
2012-06-15 05:25:08 51°13.632 2°56.015 127 0.1 358 -999
2012-06-15 05:25:14 51°13.632 2°56.015 127 -999 119 -999
2012-06-15 05:25:19 51°13.632 2°56.015 127 -999 300 -999
2012-06-15 05:25:23 51°13.632 2°56.015 127 0.1 221 -999
2012-06-15 05:25:28 51°13.632 2°56.015 127.1 -999 221 -999
2012-06-15 05:25:34 51°13.633 2°56.014 127.1 0.1 327 -999
2012-06-15 05:25:39 51°13.633 2°56.014 127.1 0.1 2 -999
2012-06-15 05:25:43 51°13.632 2°56.014 127.1 0.1 3 -999
2012-06-15 05:25:49 51°13.632 2°56.014 127.1 0.1 189 -999
2012-06-15 05:25:54 51°13.632 2°56.014 127.1 0.1 188 -999
2012-06-15 05:25:59 51°13.632 2°56.014 127.1 0.1 190 -999
2012-06-15 05:26:03 51°13.632 2°56.014 127.1 0.1 67 -999
2012-06-15 05:26:08 51°13.632 2°56.014 127.3 0.1 55 -999
2012-06-15 05:26:13 51°13.632 2°56.014 127.4 0.1 94 7.9
2012-06-15 05:26:18 51°13.632 2°56.015 127.4 0.2 74 8
2012-06-15 05:26:23 51°13.632 2°56.014 127.4 0.1 108 8
2012-06-15 05:26:28 51°13.632 2°56.014 127.6 0.1 83 7.9
2012-06-15 05:26:34 51°13.632 2°56.014 127.8 -999 336 -999
2012-06-15 05:26:39 51°13.632 2°56.014 127.8 0.1 237 -999
2012-06-15 05:26:43 51°13.632 2°56.014 127.8 -999 270 7.9
2012-06-15 05:26:48 51°13.632 2°56.014 127.8 -999 27 8
2012-06-15 05:26:53 51°13.632 2°56.014 127.8 0.1 42 8
2012-06-15 05:26:58 51°13.632 2°56.014 127.8 0.1 54 8.1
2012-06-15 05:27:03 51°13.632 2°56.015 127.8 0.1 75 5.9
2012-06-15 05:27:09 51°13.632 2°56.015 127.8 0.1 80 -999
2012-06-15 05:27:14 51°13.632 2°56.014 127.8 0.1 309 -999
2012-06-15 05:27:18 51°13.632 2°56.014 127.8 0.1 226 7.9
2012-06-15 05:27:23 51°13.632 2°56.015 127.8 0.1 203 -999
2012-06-15 05:27:28 51°13.632 2°56.014 127.8 0.2 204 -999
2012-06-15 05:27:34 51°13.632 2°56.015 127.8 0.1 330 -999
2012-06-15 05:27:39 51°13.632 2°56.014 127.8 0.1 345 -999
2012-06-15 05:27:43 51°13.632 2°56.014 127.8 -999 257 -999
2012-06-15 05:27:48 51°13.632 2°56.015 127.8 -999 72 7.9
2012-06-15 05:27:53 51°13.632 2°56.014 127.8 0.1 11 -999
2012-06-15 05:27:59 51°13.632 2°56.015 127.8 0.1 48 -999
2012-06-15 05:28:03 51°13.632 2°56.015 127.8 -999 80 -999
2012-06-15 05:28:08 51°13.632 2°56.014 127.8 0.1 342 -999
2012-06-15 05:28:14 51°13.632 2°56.015 127.8 -999 201 -999
2012-06-15 05:28:19 51°13.632 2°56.015 127.8 -999 80 -999
2012-06-15 05:28:23 51°13.632 2°56.015 127.8 0.1 165 -999
2012-06-15 05:28:28 51°13.631 2°56.015 127.8 0.1 192 -999
2012-06-15 05:28:34 51°13.632 2°56.014 127.8 0.1 341 -999
2012-06-15 05:28:38 51°13.632 2°56.014 127.8 0.1 333 -999
2012-06-15 05:28:43 51°13.632 2°56.014 127.8 0.1 17 -999
2012-06-15 05:28:48 51°13.632 2°56.014 127.8 -999 14 -999
2012-06-15 05:28:54 51°13.631 2°56.014 127.8 0.1 226 -999
2012-06-15 05:28:58 51°13.631 2°56.014 127.8 0.1 209 -999
2012-06-15 05:29:03 51°13.631 2°56.014 127.8 0.1 201 -999
2012-06-15 05:29:09 51°13.631 2°56.014 127.8 0.1 178 7.9
2012-06-15 05:29:14 51°13.632 2°56.015 127.8 -999 30 -999
2012-06-15 05:29:19 51°13.632 2°56.015 127.8 -999 341 -999
2012-06-15 05:29:23 51°13.631 2°56.015 127.8 -999 254 -999
2012-06-15 05:29:29 51°13.631 2°56.015 127.8 -999 107 -999
2012-06-15 05:29:34 51°13.631 2°56.015 127.8 0.1 142 -999
2012-06-15 05:29:39 51°13.632 2°56.015 127.8 -999 148 -999
2012-06-15 05:29:43 51°13.632 2°56.014 127.8 0.1 300 -999
2012-06-15 05:29:48 51°13.632 2°56.015 127.8 0.1 22 -999
2012-06-15 05:29:54 51°13.632 2°56.015 127.8 -999 52 -999
2012-06-15 05:29:59 51°13.631 2°56.015 127.8 0.2 185 -999
2012-06-15 05:30:03 51°13.632 2°56.015 127.8 0.1 19 -999
2012-06-15 05:30:08 51°13.632 2°56.015 127.8 0.1 353 -999
2012-06-15 05:30:13 51°13.632 2°56.015 127.8 -999 275 -999
2012-06-15 05:30:19 51°13.632 2°56.015 127.8 -999 87 -999
2012-06-15 05:30:23 51°13.632 2°56.015 127.8 0.1 202 -999
2012-06-15 05:30:28 51°13.632 2°56.015 127.8 0.1 291 -999
2012-06-15 05:30:34 51°13.632 2°56.015 127.8 0.2 208 -999
2012-06-15 05:30:38 51°13.631 2°56.015 127.8 0.2 204 -999
2012-06-15 05:30:43 51°13.632 2°56.015 127.8 0.1 233 -999
2012-06-15 05:30:48 51°13.632 2°56.015 127.8 0.1 178 -999
2012-06-15 05:30:53 51°13.632 2°56.015 127.8 0.1 113 8.1
2012-06-15 05:30:58 51°13.632 2°56.015 127.8 0.1 7 8
2012-06-15 05:31:03 51°13.632 2°56.015 127.8 0.1 216 -999
2012-06-15 05:31:08 51°13.632 2°56.015 127.8 0.1 243 8
2012-06-15 05:31:13 51°13.632 2°56.015 127.8 -999 9 8.1
2012-06-15 05:31:18 51°13.632 2°56.015 127.8 0.2 4 8.1
2012-06-15 05:31:23 51°13.632 2°56.015 127.8 0.1 330 8
2012-06-15 05:31:27 51°13.632 2°56.015 127.8 0.1 199 8
2012-06-15 05:31:32 51°13.632 2°56.015 127.8 0.1 130 8.1
2012-06-15 05:31:37 51°13.632 2°56.015 127.9 0.1 157 8.2
2012-06-15 05:31:42 51°13.632 2°56.015 127.9 0.2 197 8
2012-06-15 05:31:47 51°13.632 2°56.015 127.9 -999 172 8.1
2012-06-15 05:31:52 51°13.632 2°56.015 127.9 -999 254 8.2
2012-06-15 05:31:57 51°13.632 2°56.015 127.9 0.1 343 -999
2012-06-15 05:32:03 51°13.632 2°56.015 127.9 -999 218 -999
2012-06-15 05:32:08 51°13.632 2°56.015 127.9 0.2 182 -999
2012-06-15 05:32:13 51°13.632 2°56.015 127.9 0.1 187 8.2
2012-06-15 05:32:18 51°13.632 2°56.015 127.9 0.1 192 8.2
2012-06-15 05:32:23 51°13.632 2°56.015 127.9 0.1 177 -999
2012-06-15 05:32:28 51°13.632 2°56.015 127.9 0.1 179 8.2
2012-06-15 05:32:33 51°13.632 2°56.015 127.9 0.1 350 8.1
2012-06-15 05:32:38 51°13.632 2°56.015 127.9 0.1 334 8
2012-06-15 05:32:43 51°13.632 2°56.015 127.9 0.1 241 8.2
2012-06-15 05:32:48 51°13.632 2°56.015 127.9 0.1 227 -999
2012-06-15 05:32:54 51°13.632 2°56.015 127.9 0.1 11 -999
2012-06-15 05:32:58 51°13.632 2°56.015 127.9 0.1 26 -999
2012-06-15 05:33:03 51°13.632 2°56.015 127.9 -999 102 -999
2012-06-15 05:33:09 51°13.632 2°56.015 127.9 -999 82 -999
2012-06-15 05:33:13 51°13.632 2°56.015 127.9 -999 141 8.2
2012-06-15 05:33:19 51°13.632 2°56.015 127.9 -999 180 -999
2012-06-15 05:33:23 51°13.632 2°56.014 127.9 -999 209 -999
2012-06-15 05:33:28 51°13.632 2°56.014 127.9 -999 203 -999
2012-06-15 05:33:34 51°13.632 2°56.014 127.9 -999 151 -999
2012-06-15 05:33:39 51°13.632 2°56.014 127.9 0.1 194 -999
2012-06-15 05:33:43 51°13.632 2°56.014 127.9 0.1 190 8.1
2012-06-15 05:33:48 51°13.632 2°56.014 127.9 -999 28 -999
2012-06-15 05:33:54 51°13.632 2°56.014 128 0.2 192 8.2
2012-06-15 05:33:58 51°13.632 2°56.014 128 0.1 175 8.2
2012-06-15 05:34:03 51°13.632 2°56.015 128 0.1 10 8.2
2012-06-15 05:34:07 51°13.632 2°56.014 128 -999 4 8.2
2012-06-15 05:34:13 51°13.632 2°56.015 128 -999 190 8.2
2012-06-15 05:34:18 51°13.632 2°56.015 128 -999 277 8.2
2012-06-15 05:34:23 51°13.632 2°56.015 128 0.1 22 8.2
2012-06-15 05:34:27 51°13.632 2°56.015 128 0.2 12 8.2
2012-06-15 05:34:32 51°13.632 2°56.015 128 -999 355 8.2
2012-06-15 05:34:37 51°13.632 2°56.015 128 0.1 175 8.2
2012-06-15 05:34:42 51°13.632 2°56.014 128 0.3 185 8.2
2012-06-15 05:34:47 51°13.632 2°56.015 128 0.1 175 -999
2012-06-15 05:34:52 51°13.632 2°56.015 128 -999 10 8.2
2012-06-15 05:34:57 51°13.632 2°56.015 128 0.1 192 8.2
2012-06-15 05:35:02 51°13.632 2°56.015 128 0.1 180 8.2
2012-06-15 05:35:07 51°13.632 2°56.015 128 -999 58 8.2
2012-06-15 05:35:11 51°13.632 2°56.015 128 0.1 31 8.2
2012-06-15 05:35:16 51°13.632 2°56.015 128 -999 200 8.3
2012-06-15 05:35:22 51°13.632 2°56.015 128 0.1 214 8.2
2012-06-15 05:35:26 51°13.631 2°56.016 128 -999 218 8.2
2012-06-15 05:35:31 51°13.631 2°56.016 128 0.1 181 -999
2012-06-15 05:35:37 51°13.631 2°56.016 128 0.1 80 -999
2012-06-15 05:35:43 51°13.632 2°56.016 128 -999 170 -999
2012-06-15 05:35:48 51°13.632 2°56.016 128 -999 32 -999
2012-06-15 05:35:54 51°13.632 2°56.015 128 0.2 177 -999
2012-06-15 05:35:58 51°13.632 2°56.015 128 0.1 172 -999
2012-06-15 05:36:03 51°13.632 2°56.015 128 -999 313 -999
2012-06-15 05:36:08 51°13.632 2°56.015 128 -999 318 -999
2012-06-15 05:36:13 51°13.632 2°56.015 128 0.1 184 8.2
2012-06-15 05:36:18 51°13.632 2°56.015 128 -999 186 8.2
2012-06-15 05:36:23 51°13.632 2°56.015 128 -999 314 -999
2012-06-15 05:36:28 51°13.632 2°56.015 128 0.1 201 -999
2012-06-15 05:36:33 51°13.632 2°56.015 128 0.1 208 -999
2012-06-15 05:36:38 51°13.633 2°56.015 128 0.1 -999 -999
2012-06-15 05:36:43 51°13.632 2°56.015 128 -999 154 -999
2012-06-15 05:36:48 51°13.633 2°56.014 128 0.1 357 -999
2012-06-15 05:36:53 51°13.633 2°56.014 128 0.1 358 8.2
2012-06-15 05:36:59 51°13.633 2°56.014 127.9 0.1 6 -999
2012-06-15 05:37:03 51°13.633 2°56.014 127.9 0.1 7 8.2
2012-06-15 05:37:08 51°13.633 2°56.014 127.9 -999 358 -999
2012-06-15 05:37:13 51°13.632 2°56.014 127.9 -999 152 -999
2012-06-15 05:37:18 51°13.633 2°56.014 127.9 -999 28 -999
2012-06-15 05:37:23 51°13.633 2°56.014 127.9 0.1 32 8.2
2012-06-15 05:37:28 51°13.633 2°56.015 127.9 0.1 88 8.2
2012-06-15 05:37:33 51°13.632 2°56.015 127.9 0.1 68 -999
2012-06-15 05:37:38 51°13.633 2°56.014 127.9 0.2 27 -999
2012-06-15 05:37:43 51°13.633 2°56.013 128.1 0.1 289 8.2
2012-06-15 05:37:48 51°13.632 2°56.013 128.1 0.2 219 -999
2012-06-15 05:37:53 51°13.632 2°56.014 128.1 0.1 151 -999
2012-06-15 05:37:58 51°13.633 2°56.014 128 0.1 59 8.1
2012-06-15 05:38:03 51°13.632 2°56.014 127.4 -999 153 8.1
2012-06-15 05:38:08 51°13.632 2°56.014 126.4 -999 180 8.2
2012-06-15 05:38:12 51°13.632 2°56.014 125.3 -999 198 8.2
2012-06-15 05:38:17 51°13.632 2°56.014 124.2 0.1 209 8.2
2012-06-15 05:38:22 51°13.632 2°56.014 123 0.1 198 8.2
2012-06-15 05:38:27 51°13.632 2°56.014 121.7 -999 167 -999
2012-06-15 05:38:32 51°13.632 2°56.014 120.4 -999 140 8.2
2012-06-15 05:38:38 51°13.632 2°56.014 118.9 -999 80 8.5
2012-06-15 05:38:43 51°13.632 2°56.014 117.4 -999 281 8.2
2012-06-15 05:38:48 51°13.632 2°56.014 115.9 0.1 10 8.2
2012-06-15 05:38:54 51°13.631 2°56.014 114.2 0.1 201 -999
2012-06-15 05:38:58 51°13.631 2°56.014 112.6 -999 251 8.2
2012-06-15 05:39:04 51°13.631 2°56.014 111.2 0.1 47 -999
2012-06-15 05:39:08 51°13.631 2°56.014 109.7 0.1 103 8.2
2012-06-15 05:39:13 51°13.631 2°56.013 108.3 0.1 237 -999
2012-06-15 05:39:19 51°13.631 2°56.012 107.3 0.4 274 8.3
2012-06-15 05:39:24 51°13.632 2°56.01 106.7 0.8 286 8.4
2012-06-15 05:39:28 51°13.632 2°56.008 106.1 1.1 281 8.5
2012-06-15 05:39:33 51°13.633 2°56.005 105.8 1.5 291 8.3
2012-06-15 05:39:39 51°13.633 2°55.999 105.5 2.2 280 -999
2012-06-15 05:39:44 51°13.634 2°55.994 106 2.5 284 8.5
2012-06-15 05:39:48 51°13.635 2°55.99 106.5 2.7 285 -999
2012-06-15 05:39:54 51°13.637 2°55.982 107 3 291 -999
2012-06-15 05:39:59 51°13.638 2°55.974 107.6 3.3 287 -999
2012-06-15 05:40:04 51°13.64 2°55.967 108.3 3.5 288 -999
2012-06-15 05:40:08 51°13.641 2°55.961 108.5 3.6 286 -999
2012-06-15 05:40:14 51°13.643 2°55.952 108.8 3.7 287 -999
2012-06-15 05:40:19 51°13.644 2°55.943 109 3.9 287 -999
2012-06-15 05:40:24 51°13.646 2°55.935 109.6 4 287 -999
2012-06-15 05:40:28 51°13.648 2°55.929 110.2 4 289 -999
2012-06-15 05:40:34 51°13.65 2°55.919 111 3.9 289 -999
2012-06-15 05:40:38 51°13.651 2°55.912 112.2 4 290 -999
2012-06-15 05:40:43 51°13.653 2°55.904 114.1 4 290 -999
2012-06-15 05:40:48 51°13.655 2°55.896 116.2 3.9 294 -999
2012-06-15 05:40:53 51°13.657 2°55.888 117.6 3.9 293 -999
2012-06-15 05:40:58 51°13.659 2°55.88 118.6 3.9 293 -999
2012-06-15 05:41:03 51°13.662 2°55.872 119.3 4 295 -999
2012-06-15 05:41:08 51°13.664 2°55.863 120.3 4 295 -999
2012-06-15 05:41:13 51°13.666 2°55.855 122.4 4 295 -999
2012-06-15 05:41:18 51°13.669 2°55.848 125.4 4 298 -999
2012-06-15 05:41:23 51°13.672 2°55.84 128.7 4 303 -999
2012-06-15 05:41:28 51°13.675 2°55.833 132.1 4.1 305 -999
2012-06-15 05:41:33 51°13.679 2°55.826 135 4.2 308 -999
2012-06-15 05:41:39 51°13.684 2°55.818 137.5 4.5 314 -999
2012-06-15 05:41:43 51°13.688 2°55.812 139.3 4.5 318 -999
2012-06-15 05:41:48 51°13.693 2°55.805 140.7 4.5 318 -999
2012-06-15 05:41:53 51°13.697 2°55.798 141.8 4.3 318 -999
2012-06-15 05:41:57 51°13.701 2°55.794 142.7 4.2 319 -999
2012-06-15 05:42:04 51°13.707 2°55.785 143.8 4.1 319 -999
2012-06-15 05:42:09 51°13.711 2°55.78 144.1 4 320 -999
2012-06-15 05:42:14 51°13.716 2°55.774 144.2 4 320 -999
2012-06-15 05:42:18 51°13.719 2°55.77 144.2 4 320 -999
2012-06-15 05:42:24 51°13.725 2°55.763 143.8 4 322 -999
2012-06-15 05:42:29 51°13.729 2°55.758 143.5 4.1 323 -999
2012-06-15 05:42:34 51°13.733 2°55.753 143.7 4.1 323 -999
2012-06-15 05:42:38 51°13.737 2°55.748 144 4.1 322 -999
2012-06-15 05:42:43 51°13.741 2°55.742 144.3 4.2 321 -999
2012-06-15 05:42:49 51°13.747 2°55.735 144.5 4.3 320 -999
2012-06-15 05:42:53 51°13.751 2°55.73 144.5 4.4 321 -999
2012-06-15 05:42:58 51°13.756 2°55.724 144.5 4.5 322 -999
2012-06-15 05:43:03 51°13.761 2°55.718 144.6 4.6 323 -999
2012-06-15 05:43:08 51°13.766 2°55.712 144.8 4.6 323 -999
2012-06-15 05:43:14 51°13.772 2°55.704 145.2 4.6 323 -999
2012-06-15 05:43:19 51°13.777 2°55.698 146 4.7 324 -999
2012-06-15 05:43:23 51°13.782 2°55.693 146.8 4.9 324 -999
2012-06-15 05:43:29 51°13.788 2°55.686 147.8 4.9 325 -999
2012-06-15 05:43:34 51°13.794 2°55.68 149 4.9 327 -999
2012-06-15 05:43:39 51°13.8 2°55.674 150.4 4.9 328 -999
2012-06-15 05:43:43 51°13.804 2°55.67 152.1 5 329 -999
2012-06-15 05:43:48 51°13.811 2°55.665 153.2 5 331 -999
2012-06-15 05:43:54 51°13.818 2°55.658 153.6 5 331 -999
2012-06-15 05:43:59 51°13.824 2°55.653 153.9 4.9 331 -999
2012-06-15 05:44:03 51°13.829 2°55.649 154 4.9 330 -999
2012-06-15 05:44:08 51°13.835 2°55.644 154 4.8 332 -999
2012-06-15 05:44:13 51°13.841 2°55.639 154 4.8 332 -999
2012-06-15 05:44:18 51°13.847 2°55.634 154.7 4.7 333 -999
2012-06-15 05:44:23 51°13.853 2°55.629 155.5 4.7 333 -999
2012-06-15 05:44:28 51°13.858 2°55.625 156.8 4.6 333 -999
2012-06-15 05:44:33 51°13.864 2°55.62 158.2 4.4 334 -999
2012-06-15 05:44:38 51°13.87 2°55.616 159.8 4.3 336 -999
2012-06-15 05:44:43 51°13.875 2°55.613 161.5 4.2 338 -999
2012-06-15 05:44:48 51°13.88 2°55.61 163.3 4 339 -999
2012-06-15 05:44:54 51°13.887 2°55.606 165.3 4 342 -999
2012-06-15 05:44:58 51°13.891 2°55.604 167.7 3.9 344 -999
2012-06-15 05:45:03 51°13.896 2°55.602 170.4 3.8 345 -999
2012-06-15 05:45:08 51°13.901 2°55.6 173.4 3.7 348 -999
2012-06-15 05:45:14 51°13.907 2°55.599 176.5 3.6 351 -999
2012-06-15 05:45:19 51°13.912 2°55.598 180 3.5 353 -999
2012-06-15 05:45:23 51°13.915 2°55.598 183 3.4 356 -999
2012-06-15 05:45:28 51°13.92 2°55.598 186 3.5 -999 -999
2012-06-15 05:45:33 51°13.925 2°55.598 189.5 3.4 4 -999
2012-06-15 05:45:38 51°13.93 2°55.599 192.4 3.3 6 -999
2012-06-15 05:45:43 51°13.934 2°55.6 194.8 3.2 9 -999
2012-06-15 05:45:47 51°13.937 2°55.601 197.9 3.1 11 -999
2012-06-15 05:45:54 51°13.944 2°55.603 201.1 3.1 14 -999
2012-06-15 05:45:59 51°13.948 2°55.605 204.2 3.2 17 -999
2012-06-15 05:46:04 51°13.952 2°55.607 207.5 3 20 -999
2012-06-15 05:46:08 51°13.954 2°55.608 210.6 2.9 23 -999
2012-06-15 05:46:13 51°13.958 2°55.611 213.8 2.7 24 -999
2012-06-15 05:46:19 51°13.962 2°55.614 216.4 2.4 25 -999
2012-06-15 05:46:24 51°13.964 2°55.615 219 1.8 27 -999
2012-06-15 05:46:28 51°13.965 2°55.616 222 1.5 26 -999
2012-06-15 05:46:33 51°13.967 2°55.617 225.8 1.1 20 -999
2012-06-15 05:46:38 51°13.968 2°55.617 230 0.9 11 -999
2012-06-15 05:46:44 51°13.969 2°55.617 234.2 0.8 351 -999
2012-06-15 05:46:48 51°13.97 2°55.616 238.7 0.8 314 -999
2012-06-15 05:46:53 51°13.969 2°55.613 244.1 1.4 277 -999
2012-06-15 05:46:58 51°13.969 2°55.609 251.8 2 273 -999
2012-06-15 05:47:03 51°13.969 2°55.604 260.7 2.5 277 -999
2012-06-15 05:47:08 51°13.971 2°55.597 270 3.1 286 -999
2012-06-15 05:47:14 51°13.972 2°55.588 279.3 3.6 289 -999
2012-06-15 05:47:18 51°13.974 2°55.582 288.8 4 295 -999
2012-06-15 05:47:23 51°13.978 2°55.573 298 4.6 304 -999
2012-06-15 05:47:28 51°13.982 2°55.565 305.4 4.9 308 -999
2012-06-15 05:47:33 51°13.988 2°55.557 311.8 5.4 316 -999
2012-06-15 05:47:39 51°13.995 2°55.548 318.9 5.7 320 -999
2012-06-15 05:47:43 51°14 2°55.541 322.8 5.9 324 -999
2012-06-15 05:47:48 51°14.008 2°55.534 326.8 6.3 327 -999
2012-06-15 05:47:53 51°14.015 2°55.526 328.8 6.5 327 -999
2012-06-15 05:47:59 51°14.024 2°55.517 329.8 6.7 328 -999
2012-06-15 05:48:04 51°14.032 2°55.509 331.1 6.9 328 -999
2012-06-15 05:48:09 51°14.041 2°55.5 332.1 7.2 328 -999
2012-06-15 05:48:13 51°14.048 2°55.493 332.2 7.4 327 -999
2012-06-15 05:48:19 51°14.06 2°55.484 332.5 7.7 330 -999
2012-06-15 05:48:24 51°14.07 2°55.475 333 8.1 331 -999
2012-06-15 05:48:29 51°14.08 2°55.466 333.3 8.2 332 -999
2012-06-15 05:48:33 51°14.088 2°55.458 333 8.3 329 -999
2012-06-15 05:48:38 51°14.098 2°55.449 333 8.6 331 -999
2012-06-15 05:48:44 51°14.111 2°55.437 333.5 8.8 331 -999
2012-06-15 05:48:49 51°14.121 2°55.427 333.6 8.9 329 -999
2012-06-15 05:48:53 51°14.131 2°55.419 333.5 9.1 330 -999
2012-06-15 05:48:58 51°14.142 2°55.41 333.4 9.3 330 -999
2012-06-15 05:49:04 51°14.155 2°55.397 333 9.2 330 -999
2012-06-15 05:49:09 51°14.167 2°55.386 333.2 9.5 330 -999
2012-06-15 05:49:13 51°14.176 2°55.378 332.9 9.6 329 -999
2012-06-15 05:49:18 51°14.188 2°55.367 332.9 9.7 331 -999
2012-06-15 05:49:24 51°14.202 2°55.356 333.9 9.6 331 -999
2012-06-15 05:49:29 51°14.214 2°55.346 334.6 9.7 332 -999
2012-06-15 05:49:33 51°14.223 2°55.337 334 9.8 330 -999
2012-06-15 05:49:38 51°14.235 2°55.326 333.3 9.9 331 -999
2012-06-15 05:49:43 51°14.246 2°55.315 333.6 9.9 330 -999
2012-06-15 05:49:48 51°14.258 2°55.304 333.4 9.9 330 -999
2012-06-15 05:49:53 51°14.27 2°55.293 332.7 10 330 -999
2012-06-15 05:49:58 51°14.283 2°55.281 333.2 10.2 331 -999
2012-06-15 05:50:03 51°14.295 2°55.27 333.5 10.3 330 -999
2012-06-15 05:50:08 51°14.307 2°55.258 332.2 10.4 328 -999
2012-06-15 05:50:13 51°14.319 2°55.246 331.2 10.3 327 -999
2012-06-15 05:50:18 51°14.331 2°55.234 331.5 10.3 329 -999
2012-06-15 05:50:23 51°14.345 2°55.222 332.5 10.6 330 -999
2012-06-15 05:50:28 51°14.359 2°55.211 333.3 10.8 331 -999
2012-06-15 05:50:33 51°14.371 2°55.199 332 10.8 329 -999
2012-06-15 05:50:38 51°14.384 2°55.185 329.9 10.9 327 -999
2012-06-15 05:50:43 51°14.396 2°55.172 328.8 10.9 326 -999
2012-06-15 05:50:48 51°14.409 2°55.16 329.8 11 330 -999
2012-06-15 05:50:53 51°14.423 2°55.147 331.6 11.2 329 -999
2012-06-15 05:50:58 51°14.436 2°55.133 331.7 11.4 328 -999
2012-06-15 05:51:03 51°14.449 2°55.119 330.8 11.4 326 -999
2012-06-15 05:51:08 51°14.462 2°55.105 329.9 11.3 326 -999
2012-06-15 05:51:13 51°14.475 2°55.092 330.6 11.4 327 11.3
2012-06-15 05:51:18 51°14.489 2°55.078 331.1 11.5 328 -999
2012-06-15 05:51:23 51°14.502 2°55.064 330.6 11.5 326 -999
2012-06-15 05:51:28 51°14.515 2°55.051 330.6 11.5 328 -999
2012-06-15 05:51:34 51°14.531 2°55.034 331.2 11.4 325 10.9
2012-06-15 05:51:37 51°14.538 2°55.025 330.3 11.4 324 11.2
2012-06-15 05:51:43 51°14.553 2°55.007 329.3 11.3 325 11.8
2012-06-15 05:51:47 51°14.563 2°54.996 328.9 11.1 326 11.8
2012-06-15 05:51:52 51°14.577 2°54.985 330.7 11 333 12.2
2012-06-15 05:51:57 51°14.591 2°54.977 337.2 10.8 338 12.6
2012-06-15 05:52:02 51°14.606 2°54.968 343.1 11 338 11.9
2012-06-15 05:52:07 51°14.62 2°54.958 344.4 11.2 337 12.1
2012-06-15 05:52:12 51°14.634 2°54.949 344 11.2 338 11.7
2012-06-15 05:52:17 51°14.65 2°54.939 343.3 11.5 338 11.4
2012-06-15 05:52:22 51°14.664 2°54.93 342.9 11.5 339 11.4
2012-06-15 05:52:26 51°14.676 2°54.922 343.7 11.5 337 11.4
2012-06-15 05:52:32 51°14.694 2°54.91 343.8 11.4 337 11
2012-06-15 05:52:37 51°14.709 2°54.899 342.7 11.5 335 11.1
2012-06-15 05:52:42 51°14.723 2°54.887 340.7 11.7 333 11.3
2012-06-15 05:52:46 51°14.733 2°54.877 339.2 11.5 331 11.3
2012-06-15 05:52:51 51°14.748 2°54.865 338.2 11.4 331 11.5
2012-06-15 05:52:56 51°14.762 2°54.85 336 11.7 326 11.4
2012-06-15 05:53:01 51°14.775 2°54.834 332.4 11.7 323 10.9
2012-06-15 05:53:06 51°14.787 2°54.817 328.7 11.7 320 10.5
2012-06-15 05:53:10 51°14.797 2°54.803 326 11.8 319 10.4
2012-06-15 05:53:15 51°14.809 2°54.785 324.2 12.1 317 10.8
2012-06-15 05:53:20 51°14.822 2°54.767 322.8 12.1 316 11.1
2012-06-15 05:53:25 51°14.834 2°54.749 321.9 12 316 11
2012-06-15 05:53:30 51°14.846 2°54.73 321.6 12.1 316 11.1
2012-06-15 05:53:35 51°14.858 2°54.71 320.6 12.3 314 10.9
2012-06-15 05:53:40 51°14.869 2°54.69 318.7 12.2 312 11.2
2012-06-15 05:53:45 51°14.879 2°54.669 316.7 12.3 310 11.2
2012-06-15 05:53:50 51°14.89 2°54.649 314.4 12.3 309 11.3
2012-06-15 05:53:55 51°14.9 2°54.628 313.6 12.2 309 11.6
2012-06-15 05:54:00 51°14.91 2°54.606 313.3 12.2 308 11.7
2012-06-15 05:54:05 51°14.921 2°54.585 312.5 12.2 307 -999
2012-06-15 05:54:10 51°14.931 2°54.563 311.3 12.2 306 11.3
2012-06-15 05:54:15 51°14.941 2°54.541 309.7 12.2 305 12
2012-06-15 05:54:20 51°14.95 2°54.519 308.8 12.1 305 12.1
2012-06-15 05:54:25 51°14.959 2°54.497 308.7 12.2 304 11.8
2012-06-15 05:54:30 51°14.969 2°54.474 308.8 12.2 304 11.5
2012-06-15 05:54:35 51°14.979 2°54.453 309 12 305 11.6
2012-06-15 05:54:40 51°14.989 2°54.432 309.3 12 306 11.7
2012-06-15 05:54:45 51°14.999 2°54.411 310.8 12 308 11.4
2012-06-15 05:54:50 51°15.009 2°54.389 312 12 308 11.5
2012-06-15 05:54:55 51°15.021 2°54.369 313.4 12.1 310 -999
2012-06-15 05:55:01 51°15.034 2°54.346 314.5 11.9 311 10.9
2012-06-15 05:55:05 51°15.043 2°54.33 315.6 12 312 10.4
2012-06-15 05:55:10 51°15.054 2°54.311 317.3 11.9 314 10.2
2012-06-15 05:55:15 51°15.065 2°54.293 318.9 11.8 314 9.4
2012-06-15 05:55:20 51°15.078 2°54.275 320.4 11.8 316 9.2
2012-06-15 05:55:25 51°15.089 2°54.257 321.4 11.8 316 9.2
2012-06-15 05:55:30 51°15.101 2°54.239 321.4 11.8 316 9.3
2012-06-15 05:55:34 51°15.111 2°54.224 320.9 11.9 315 9.4
2012-06-15 05:55:40 51°15.124 2°54.201 320.5 11.9 315 9.2
2012-06-15 05:55:45 51°15.136 2°54.182 320.4 11.9 315 9.3
2012-06-15 05:55:50 51°15.148 2°54.164 320.8 11.9 316 9.4
2012-06-15 05:55:54 51°15.158 2°54.149 320.8 11.9 316 9.2
2012-06-15 05:56:00 51°15.172 2°54.128 321.6 11.8 319 9.6
2012-06-15 05:56:05 51°15.184 2°54.11 323.1 11.8 317 9.5
2012-06-15 05:56:10 51°15.197 2°54.093 323.5 11.9 320 9.7
2012-06-15 05:56:15 51°15.21 2°54.077 324.9 11.8 320 9.6
2012-06-15 05:56:20 51°15.223 2°54.061 325.3 11.8 321 9.7
2012-06-15 05:56:25 51°15.235 2°54.044 326.1 11.8 321 9.9
2012-06-15 05:56:30 51°15.249 2°54.029 327.8 11.8 324 9.9
2012-06-15 05:56:34 51°15.259 2°54.017 329.1 11.9 324 9.9
2012-06-15 05:56:40 51°15.276 2°54 330.3 11.8 326 9.9
2012-06-15 05:56:45 51°15.289 2°53.985 331.3 11.9 326 10.2
2012-06-15 05:56:50 51°15.303 2°53.971 332.5 11.9 328 10
2012-06-15 05:56:54 51°15.315 2°53.96 333.2 11.9 328 10.1
2012-06-15 05:57:00 51°15.332 2°53.944 334.2 11.9 329 10.3
2012-06-15 05:57:05 51°15.346 2°53.93 334.3 11.9 329 10.5
2012-06-15 05:57:10 51°15.36 2°53.917 334.7 11.9 330 10.5
2012-06-15 05:57:14 51°15.372 2°53.907 335.5 11.9 331 10.5
2012-06-15 05:57:20 51°15.389 2°53.892 336.1 11.9 331 11
2012-06-15 05:57:25 51°15.404 2°53.879 336.2 12 332 11.2
2012-06-15 05:57:30 51°15.418 2°53.866 336.7 11.9 331 11.1
2012-06-15 05:57:34 51°15.43 2°53.856 336.5 11.9 330 11.5
2012-06-15 05:57:40 51°15.447 2°53.839 334.9 12 329 11.7
2012-06-15 05:57:45 51°15.461 2°53.826 334.7 12 331 12.1
2012-06-15 05:57:50 51°15.475 2°53.813 335.4 12 330 12
2012-06-15 05:57:54 51°15.487 2°53.802 335.4 12.1 330 11.9
2012-06-15 05:58:00 51°15.504 2°53.786 335.8 12 329 11.9
2012-06-15 05:58:05 51°15.518 2°53.772 335.4 11.7 329 11.7
2012-06-15 05:58:11 51°15.534 2°53.755 333.2 11.6 327 11.5
2012-06-15 05:58:14 51°15.543 2°53.747 331.8 12 327 11.6
2012-06-15 05:58:19 51°15.558 2°53.733 333.2 12.2 330 11.9
2012-06-15 05:58:24 51°15.572 2°53.72 334.7 11.9 328 11.4
2012-06-15 05:58:29 51°15.585 2°53.703 330.4 12 325 11.7
2012-06-15 05:58:35 51°15.602 2°53.687 332.4 11.9 330 11.7
2012-06-15 05:58:40 51°15.615 2°53.67 330.1 11.9 321 11.9
2012-06-15 05:58:45 51°15.628 2°53.656 330 11.8 326 12
2012-06-15 05:58:50 51°15.642 2°53.64 330 11.9 323 11.9
2012-06-15 05:58:55 51°15.656 2°53.626 330.2 11.9 325 12.2
2012-06-15 05:59:00 51°15.669 2°53.61 329.5 12 324 12.1
2012-06-15 05:59:05 51°15.683 2°53.596 330.1 12 327 11.9
2012-06-15 05:59:11 51°15.7 2°53.579 331.6 11.9 327 11.9
2012-06-15 05:59:15 51°15.712 2°53.568 333.2 12 330 12
2012-06-15 05:59:20 51°15.726 2°53.555 334.9 11.9 330 12.3
2012-06-15 05:59:25 51°15.74 2°53.541 334.9 12 329 12.4
2012-06-15 05:59:30 51°15.754 2°53.528 334 11.9 328 12.2
2012-06-15 05:59:35 51°15.769 2°53.514 333.4 12 328 12.3
2012-06-15 05:59:39 51°15.78 2°53.503 333.5 12 329 12.3
2012-06-15 05:59:45 51°15.797 2°53.487 334.3 11.9 329 12.5
2012-06-15 05:59:50 51°15.811 2°53.473 334.3 11.9 328 12.5
2012-06-15 05:59:55 51°15.825 2°53.459 333.8 11.9 328 12.3
2012-06-15 06:00:00 51°15.839 2°53.445 333.8 11.9 329 12.1
2012-06-15 06:00:06 51°15.856 2°53.43 334.8 11.9 331 -999
2012-06-15 06:00:11 51°15.871 2°53.417 336.1 11.8 331 12.5
2012-06-15 06:00:16 51°15.885 2°53.405 336.3 11.8 331 12.5
2012-06-15 06:00:21 51°15.899 2°53.393 337.1 11.8 333 12.5
2012-06-15 06:00:26 51°15.914 2°53.38 337.6 11.8 332 12.5
2012-06-15 06:00:31 51°15.929 2°53.369 338.3 11.8 335 12.4
2012-06-15 06:00:35 51°15.941 2°53.36 339 11.9 333 12.7
2012-06-15 06:00:40 51°15.955 2°53.348 338.3 11.9 333 12.4
2012-06-15 06:00:45 51°15.969 2°53.334 337.1 11.8 331 12.7
2012-06-15 06:00:50 51°15.984 2°53.321 335.7 11.9 329 12.6
2012-06-15 06:00:55 51°15.998 2°53.308 334.7 11.9 329 12.3
2012-06-15 06:01:00 51°16.013 2°53.295 335 12 331 12.6
2012-06-15 06:01:05 51°16.027 2°53.282 335.5 12 331 12.7
2012-06-15 06:01:11 51°16.045 2°53.267 336.2 11.9 332 12.6
2012-06-15 06:01:15 51°16.056 2°53.257 337.4 11.9 332 12.9
2012-06-15 06:01:20 51°16.071 2°53.244 337.5 11.9 331 13
2012-06-15 06:01:25 51°16.086 2°53.232 337 12 332 12.7
2012-06-15 06:01:30 51°16.1 2°53.219 337.3 12 332 12.4
2012-06-15 06:01:35 51°16.115 2°53.207 337.5 12 332 12.6
2012-06-15 06:01:40 51°16.129 2°53.193 336.8 12 330 12.6
2012-06-15 06:01:45 51°16.144 2°53.181 336.4 11.9 331 12.3
2012-06-15 06:01:50 51°16.158 2°53.168 336.3 11.9 331 12.4
2012-06-15 06:01:55 51°16.173 2°53.155 336.7 12 331 12.8
2012-06-15 06:01:59 51°16.185 2°53.145 337.1 12 331 12.7
2012-06-15 06:02:05 51°16.202 2°53.129 336.4 12.1 330 12.7
2012-06-15 06:02:10 51°16.216 2°53.115 335.3 12.1 329 12.7
2012-06-15 06:02:15 51°16.231 2°53.102 334.8 12.1 330 12.7
2012-06-15 06:02:20 51°16.246 2°53.089 335.2 12.1 330 12.7
2012-06-15 06:02:25 51°16.26 2°53.076 335.2 12.2 330 12.7
2012-06-15 06:02:30 51°16.275 2°53.062 335.2 12.2 330 12.9
2012-06-15 06:02:35 51°16.289 2°53.048 335 12 330 12.7
2012-06-15 06:02:40 51°16.304 2°53.034 334.7 12.1 329 12.7
2012-06-15 06:02:45 51°16.318 2°53.021 334.4 12.1 330 12.9
2012-06-15 06:02:50 51°16.332 2°53.007 334.4 12.1 330 13.3
2012-06-15 06:02:55 51°16.347 2°52.995 334.4 12.1 331 12.8
2012-06-15 06:02:59 51°16.358 2°52.984 334.5 12 330 12.9
2012-06-15 06:03:05 51°16.375 2°52.968 333.6 11.8 328 12.4
2012-06-15 06:03:10 51°16.389 2°52.954 332 11.9 328 12.7
2012-06-15 06:03:15 51°16.403 2°52.939 331.3 11.8 327 13
2012-06-15 06:03:19 51°16.413 2°52.928 330.7 11.8 326 12.8
2012-06-15 06:03:25 51°16.43 2°52.911 330 11.8 327 12.5
2012-06-15 06:03:30 51°16.444 2°52.898 331.6 11.7 331 12.5
2012-06-15 06:03:35 51°16.458 2°52.885 333.9 11.7 330 12.1
2012-06-15 06:03:40 51°16.473 2°52.872 334.6 11.7 331 12.3
2012-06-15 06:03:45 51°16.487 2°52.861 335.3 11.7 333 12.3
2012-06-15 06:03:50 51°16.502 2°52.849 336.8 11.8 334 12.2
2012-06-15 06:03:55 51°16.517 2°52.838 338.3 11.7 336 12.4
2012-06-15 06:04:00 51°16.532 2°52.828 339.5 11.7 336 12.5
2012-06-15 06:04:05 51°16.547 2°52.818 340.5 11.7 337 12.2
2012-06-15 06:04:10 51°16.562 2°52.807 340.5 11.8 335 12.2
2012-06-15 06:04:15 51°16.576 2°52.796 339.4 11.7 335 12
2012-06-15 06:04:19 51°16.588 2°52.787 338.3 11.7 334 12.1
2012-06-15 06:04:25 51°16.606 2°52.773 338.1 11.7 334 12.2
2012-06-15 06:04:30 51°16.62 2°52.762 337.8 11.8 335 12.1
2012-06-15 06:04:35 51°16.635 2°52.75 337.6 11.8 333 12.2
2012-06-15 06:04:40 51°16.649 2°52.738 336.9 11.7 334 11.6
2012-06-15 06:04:45 51°16.663 2°52.727 337 11.6 333 11.4
2012-06-15 06:04:50 51°16.678 2°52.715 337.1 11.6 332 11.3
2012-06-15 06:04:55 51°16.692 2°52.703 336.5 11.6 333 11.2
2012-06-15 06:05:00 51°16.706 2°52.692 336.5 11.6 333 11.2
2012-06-15 06:05:05 51°16.721 2°52.68 336.9 11.6 333 10.9
2012-06-15 06:05:10 51°16.735 2°52.668 337.1 11.6 333 10.5
2012-06-15 06:05:15 51°16.75 2°52.657 336.9 11.7 333 10.6
2012-06-15 06:05:19 51°16.761 2°52.647 336.9 11.6 333 10.5
2012-06-15 06:05:25 51°16.778 2°52.634 336.7 11.5 334 10.5
2012-06-15 06:05:30 51°16.792 2°52.622 337.5 11.6 334 10.3
2012-06-15 06:05:35 51°16.807 2°52.611 337.8 11.6 335 10.5
2012-06-15 06:05:39 51°16.818 2°52.602 338.3 11.6 334 10.5
2012-06-15 06:05:44 51°16.833 2°52.591 338.2 11.6 334 10.4
2012-06-15 06:05:50 51°16.85 2°52.578 338.2 11.6 334 10.4
2012-06-15 06:05:55 51°16.865 2°52.566 338.1 11.5 333 10.2
2012-06-15 06:05:59 51°16.876 2°52.557 337.7 11.5 335 10.7
2012-06-15 06:06:05 51°16.893 2°52.544 338 11.5 334 10.5
2012-06-15 06:06:10 51°16.908 2°52.533 338.5 11.5 335 10.8
2012-06-15 06:06:15 51°16.922 2°52.524 339.6 11.5 338 10.5
2012-06-15 06:06:19 51°16.934 2°52.516 341.2 11.5 338 10.3
2012-06-15 06:06:25 51°16.952 2°52.506 342.1 11.5 341 10.2
2012-06-15 06:06:30 51°16.967 2°52.497 343.4 11.6 341 10.1
2012-06-15 06:06:35 51°16.982 2°52.49 344.1 11.4 343 10
2012-06-15 06:06:40 51°16.997 2°52.482 346 11.3 342 10.3
2012-06-15 06:06:45 51°17.012 2°52.475 347.2 11.4 345 10.4
2012-06-15 06:06:50 51°17.028 2°52.468 348 11.4 345 10.3
2012-06-15 06:06:55 51°17.043 2°52.462 348.7 11.5 346 10.3
2012-06-15 06:07:00 51°17.058 2°52.456 349.5 11.4 346 10.4
2012-06-15 06:07:05 51°17.074 2°52.45 349.8 11.5 346 10.5
2012-06-15 06:07:10 51°17.089 2°52.443 349.9 11.4 345 10.4
2012-06-15 06:07:15 51°17.105 2°52.437 349.9 11.4 346 10.7
2012-06-15 06:07:19 51°17.117 2°52.433 350.1 11.4 347 10.5
2012-06-15 06:07:25 51°17.136 2°52.426 350.2 11.6 346 10.8
2012-06-15 06:07:30 51°17.151 2°52.42 349.8 11.5 347 10.4
2012-06-15 06:07:35 51°17.166 2°52.414 349.9 11.5 347 10.6
2012-06-15 06:07:39 51°17.179 2°52.41 351 11.5 350 10.7
2012-06-15 06:07:45 51°17.197 2°52.404 352.5 11.5 349 10.5
2012-06-15 06:07:50 51°17.213 2°52.4 353.2 11.5 351 10.7
2012-06-15 06:07:55 51°17.229 2°52.396 353.8 11.5 351 10.7
2012-06-15 06:07:59 51°17.241 2°52.393 354.8 11.4 352 10.7
2012-06-15 06:08:05 51°17.26 2°52.389 355.3 11.5 352 11.1
2012-06-15 06:08:10 51°17.276 2°52.386 356.4 11.4 354 10.8
2012-06-15 06:08:15 51°17.291 2°52.384 357.6 11.4 355 10.9
2012-06-15 06:08:19 51°17.304 2°52.383 358.8 11.4 356 10.9
2012-06-15 06:08:25 51°17.323 2°52.381 359.7 11.4 356 10.9
2012-06-15 06:08:30 51°17.339 2°52.38 359.9 11.5 357 11
2012-06-15 06:08:35 51°17.355 2°52.379 0.8 11.6 359 11.1
2012-06-15 06:08:39 51°17.368 2°52.377 0.5 11.5 356 10.9
2012-06-15 06:08:45 51°17.386 2°52.376 0.6 11.3 358 11
2012-06-15 06:08:50 51°17.402 2°52.375 1.5 11.3 357 11
2012-06-15 06:08:55 51°17.418 2°52.372 0.3 11.4 354 11.1
2012-06-15 06:08:59 51°17.43 2°52.371 359.2 11.4 357 11
2012-06-15 06:09:05 51°17.449 2°52.37 0.1 11.4 356 11.1
2012-06-15 06:09:10 51°17.465 2°52.367 359.7 11.5 355 11
2012-06-15 06:09:15 51°17.481 2°52.366 359.4 11.5 356 11
2012-06-15 06:09:20 51°17.497 2°52.364 359.7 11.5 356 11
2012-06-15 06:09:25 51°17.513 2°52.361 359.4 11.5 354 11.1
2012-06-15 06:09:30 51°17.529 2°52.359 358.5 11.6 356 11
2012-06-15 06:09:35 51°17.545 2°52.357 358.8 11.6 355 11
2012-06-15 06:09:39 51°17.557 2°52.355 359.1 11.5 356 11.1
2012-06-15 06:09:45 51°17.576 2°52.352 359 11.4 354 10.8
2012-06-15 06:09:50 51°17.592 2°52.349 357.5 11.5 353 11
2012-06-15 06:09:55 51°17.608 2°52.346 357.1 11.4 354 10.9
2012-06-15 06:09:59 51°17.621 2°52.344 358 11.4 355 11
2012-06-15 06:10:05 51°17.64 2°52.341 358.5 11.5 353 10.9
2012-06-15 06:10:10 51°17.655 2°52.339 358.1 11.4 355 10.6
2012-06-15 06:10:15 51°17.671 2°52.336 358.4 11.4 354 11.2
2012-06-15 06:10:19 51°17.684 2°52.334 358.7 11.3 354 11.1
2012-06-15 06:10:24 51°17.7 2°52.331 357.7 11.4 352 10.8
2012-06-15 06:10:30 51°17.718 2°52.326 356.5 11.3 351 10.7
2012-06-15 06:10:35 51°17.733 2°52.321 355 11.4 349 10.9
2012-06-15 06:10:39 51°17.746 2°52.318 353.9 11.5 349 11
2012-06-15 06:10:44 51°17.762 2°52.312 353.2 11.5 349 10.9
2012-06-15 06:10:50 51°17.78 2°52.306 353.1 11.4 349 10.8
2012-06-15 06:10:55 51°17.796 2°52.302 353 11.5 349 11.2
2012-06-15 06:10:59 51°17.809 2°52.298 353.8 11.5 351 10.8
2012-06-15 06:11:05 51°17.827 2°52.293 353.9 11.4 349 11.2
2012-06-15 06:11:10 51°17.843 2°52.288 353.4 11.5 349 11.1
2012-06-15 06:11:15 51°17.858 2°52.282 352.3 11.4 347 10.9
2012-06-15 06:11:19 51°17.871 2°52.277 351.3 11.4 346 11.3
2012-06-15 06:11:25 51°17.889 2°52.27 350.9 11.4 348 11.3
2012-06-15 06:11:30 51°17.905 2°52.265 351.4 11.5 348 11.4
2012-06-15 06:11:35 51°17.921 2°52.261 352.5 11.6 350 11.5
2012-06-15 06:11:40 51°17.937 2°52.256 353.5 11.5 350 11.3
2012-06-15 06:11:45 51°17.952 2°52.252 354.1 11.5 351 11.5
2012-06-15 06:11:50 51°17.968 2°52.248 354.9 11.5 351 11.5
2012-06-15 06:11:55 51°17.984 2°52.245 355.7 11.5 352 11.5
2012-06-15 06:11:59 51°17.997 2°52.242 356.1 11.5 351 11.6
2012-06-15 06:12:05 51°18.016 2°52.236 354.8 11.5 349 11.9
2012-06-15 06:12:10 51°18.032 2°52.231 353.4 11.5 348 12.1
2012-06-15 06:12:15 51°18.047 2°52.226 352.2 11.5 349 11.9
2012-06-15 06:12:19 51°18.06 2°52.222 352.5 11.6 349 11.8
2012-06-15 06:12:24 51°18.076 2°52.216 352.4 11.6 349 11.8
2012-06-15 06:12:30 51°18.094 2°52.209 352.1 11.5 346 11.8
2012-06-15 06:12:35 51°18.11 2°52.203 350.7 11.5 347 12.1
2012-06-15 06:12:39 51°18.122 2°52.199 351.4 11.7 348 12.1
2012-06-15 06:12:45 51°18.141 2°52.192 351.9 11.6 348 11.9
2012-06-15 06:12:50 51°18.157 2°52.187 352.1 11.6 347 11.9
2012-06-15 06:12:55 51°18.173 2°52.181 351.6 11.6 346 12.2
2012-06-15 06:12:59 51°18.185 2°52.176 351 11.6 348 12.1
2012-06-15 06:13:05 51°18.204 2°52.17 351.4 11.7 347 12
2012-06-15 06:13:10 51°18.22 2°52.165 352 11.6 349 12
2012-06-15 06:13:15 51°18.236 2°52.161 353.9 11.6 351 12.2
2012-06-15 06:13:20 51°18.252 2°52.157 355 11.6 351 12
2012-06-15 06:13:24 51°18.264 2°52.154 356.1 11.5 353 12.1
2012-06-15 06:13:30 51°18.283 2°52.149 356.8 11.7 351 12.2
2012-06-15 06:13:35 51°18.3 2°52.146 356.5 11.7 353 12.3
2012-06-15 06:13:40 51°18.315 2°52.142 356.3 11.7 351 11.9
2012-06-15 06:13:45 51°18.332 2°52.139 356.2 11.7 352 12.1
2012-06-15 06:13:50 51°18.348 2°52.135 356.3 11.7 352 12.1
2012-06-15 06:13:55 51°18.364 2°52.133 356.7 11.6 354 12.1
2012-06-15 06:13:59 51°18.377 2°52.131 357.9 11.7 354 12
2012-06-15 06:14:05 51°18.396 2°52.127 357.9 11.6 354 11.6
2012-06-15 06:14:10 51°18.412 2°52.124 357.9 11.6 353 11.8
2012-06-15 06:14:15 51°18.428 2°52.12 357.4 11.5 352 12.1
2012-06-15 06:14:19 51°18.441 2°52.117 356.4 11.6 351 12.2
2012-06-15 06:14:25 51°18.46 2°52.112 355.1 11.6 350 12.3
2012-06-15 06:14:30 51°18.476 2°52.107 354.1 11.7 349 12.3
2012-06-15 06:14:35 51°18.492 2°52.101 353.1 11.7 348 12.6
2012-06-15 06:14:39 51°18.504 2°52.096 352.4 11.5 348 12
2012-06-15 06:14:45 51°18.523 2°52.089 351.8 11.5 346 12
2012-06-15 06:14:50 51°18.538 2°52.084 350.8 11.5 347 12.4
2012-06-15 06:14:55 51°18.554 2°52.078 351.2 11.5 348 12.3
2012-06-15 06:14:59 51°18.567 2°52.074 352.1 11.5 349 12.4
2012-06-15 06:15:05 51°18.585 2°52.069 353.6 11.6 351 12.8
2012-06-15 06:15:10 51°18.602 2°52.065 355 11.7 351 12.8
2012-06-15 06:15:15 51°18.618 2°52.061 355.7 11.8 352 12.8
2012-06-15 06:15:19 51°18.63 2°52.058 355.8 11.7 352 12.9
2012-06-15 06:15:24 51°18.647 2°52.055 356.7 11.8 353 13.1
2012-06-15 06:15:30 51°18.666 2°52.052 357.8 11.8 354 13.2
2012-06-15 06:15:35 51°18.682 2°52.049 358.2 11.7 354 13.2
2012-06-15 06:15:39 51°18.695 2°52.046 358.5 11.7 354 13.4
2012-06-15 06:15:45 51°18.714 2°52.043 358 11.8 354 13.3
2012-06-15 06:15:50 51°18.731 2°52.041 358.4 11.7 354 13.4
2012-06-15 06:15:55 51°18.747 2°52.038 358.4 11.7 353 13.5
2012-06-15 06:15:59 51°18.76 2°52.035 358.2 11.7 353 13.4
2012-06-15 06:16:05 51°18.78 2°52.032 357.9 11.8 353 13.6
2012-06-15 06:16:10 51°18.796 2°52.029 358 11.8 354 13.6
2012-06-15 06:16:15 51°18.812 2°52.025 357.7 11.7 353 13.6
2012-06-15 06:16:19 51°18.825 2°52.023 357.6 11.7 353 13.8
2012-06-15 06:16:25 51°18.844 2°52.019 357.4 11.7 353 13.9
2012-06-15 06:16:30 51°18.86 2°52.016 357.3 11.7 352 14.1
2012-06-15 06:16:35 51°18.877 2°52.012 357.3 11.8 352 14.1
2012-06-15 06:16:39 51°18.89 2°52.009 356.6 11.8 351 14.3
2012-06-15 06:16:45 51°18.909 2°52.002 354.8 11.8 348 14.6
2012-06-15 06:16:50 51°18.925 2°51.998 353.4 11.8 349 14.5
2012-06-15 06:16:55 51°18.941 2°51.992 352.9 11.9 348 14.4
2012-06-15 06:16:59 51°18.954 2°51.987 352.6 11.8 347 14.5
2012-06-15 06:17:05 51°18.973 2°51.981 352.4 11.7 348 14.5
2012-06-15 06:17:10 51°18.989 2°51.975 352.5 11.8 348 14.8
2012-06-15 06:17:15 51°19.005 2°51.969 352.1 11.8 347 15
2012-06-15 06:17:19 51°19.018 2°51.964 351.5 11.8 347 15
2012-06-15 06:17:24 51°19.034 2°51.958 351.6 11.7 348 14.8
2012-06-15 06:17:30 51°19.053 2°51.951 352.3 11.6 347 14.9
2012-06-15 06:17:35 51°19.068 2°51.945 352.1 11.7 347 15.4
2012-06-15 06:17:39 51°19.081 2°51.941 351.9 11.7 347 15.2
2012-06-15 06:17:45 51°19.1 2°51.935 351.9 11.7 347 15.3
2012-06-15 06:17:50 51°19.116 2°51.929 351.8 11.8 348 15.1
2012-06-15 06:17:55 51°19.132 2°51.923 352.8 11.7 348 14.6
2012-06-15 06:17:59 51°19.145 2°51.919 352.8 11.7 348 14.7
2012-06-15 06:18:05 51°19.164 2°51.913 353 11.8 349 15.2
2012-06-15 06:18:10 51°19.181 2°51.908 353.7 11.8 349 15.5
2012-06-15 06:18:15 51°19.197 2°51.903 353.7 11.8 349 15.9
2012-06-15 06:18:19 51°19.209 2°51.898 352.7 11.7 347 15.4
2012-06-15 06:18:25 51°19.229 2°51.893 352.6 11.7 350 15.8
2012-06-15 06:18:30 51°19.245 2°51.888 353.6 11.7 350 16
2012-06-15 06:18:35 51°19.261 2°51.884 354.8 11.7 351 15.9
2012-06-15 06:18:39 51°19.274 2°51.881 355.5 11.8 352 16
2012-06-15 06:18:45 51°19.293 2°51.877 356.3 11.8 352 15.9
2012-06-15 06:18:50 51°19.309 2°51.873 356.7 11.8 352 16
2012-06-15 06:18:55 51°19.326 2°51.87 356.9 11.8 353 16.5
2012-06-15 06:18:59 51°19.338 2°51.867 357.1 11.7 352 16.1
2012-06-15 06:19:05 51°19.358 2°51.862 355.9 11.6 351 15.8
2012-06-15 06:19:10 51°19.374 2°51.857 354.9 11.8 349 16.1
2012-06-15 06:19:15 51°19.389 2°51.852 353.8 11.8 348 16.2
2012-06-15 06:19:19 51°19.402 2°51.847 352.4 11.8 347 16.4
2012-06-15 06:19:24 51°19.418 2°51.841 352 11.9 348 16.6
2012-06-15 06:19:30 51°19.438 2°51.834 352 11.9 347 16.6
2012-06-15 06:19:35 51°19.454 2°51.829 352 11.9 349 16.6
2012-06-15 06:19:39 51°19.467 2°51.825 352.7 11.8 348 16.4
2012-06-15 06:19:45 51°19.486 2°51.819 353.2 11.8 350 16.6
2012-06-15 06:19:50 51°19.502 2°51.815 354.5 11.9 350 16.8
2012-06-15 06:19:55 51°19.518 2°51.812 355.7 11.8 352 16
2012-06-15 06:19:59 51°19.531 2°51.808 356.1 11.8 351 16.6
2012-06-15 06:20:05 51°19.55 2°51.803 355.6 11.8 351 16.5
2012-06-15 06:20:10 51°19.566 2°51.799 355.5 11.7 351 16.3
2012-06-15 06:20:15 51°19.582 2°51.795 355.9 11.8 351 16.4
2012-06-15 06:20:19 51°19.595 2°51.791 355.4 11.8 350 16.6
2012-06-15 06:20:25 51°19.614 2°51.785 354.3 11.6 348 16.1
2012-06-15 06:20:30 51°19.63 2°51.78 352.8 11.7 348 16.5
2012-06-15 06:20:35 51°19.646 2°51.774 352.2 11.8 347 16.6
2012-06-15 06:20:40 51°19.662 2°51.768 351.2 11.7 347 16.3
2012-06-15 06:20:45 51°19.678 2°51.764 352.3 11.6 350 16.3
2012-06-15 06:20:50 51°19.694 2°51.758 353 11.8 348 16.3
2012-06-15 06:20:55 51°19.71 2°51.753 352.8 11.9 349 16.6
2012-06-15 06:20:59 51°19.723 2°51.75 353.2 11.8 350 16.6
2012-06-15 06:21:05 51°19.742 2°51.744 354.1 11.7 349 16.2
2012-06-15 06:21:10 51°19.759 2°51.739 354.1 11.8 349 16.3
2012-06-15 06:21:15 51°19.775 2°51.735 353.7 11.8 350 16.5
2012-06-15 06:21:19 51°19.788 2°51.731 353.9 11.7 350 16.3
2012-06-15 06:21:25 51°19.807 2°51.727 355.1 11.8 353 15.8
2012-06-15 06:21:30 51°19.823 2°51.723 356.6 11.8 353 15.9
2012-06-15 06:21:35 51°19.839 2°51.721 357.6 11.7 354 15.9
2012-06-15 06:21:39 51°19.852 2°51.718 358.3 11.6 354 16.2
2012-06-15 06:21:44 51°19.869 2°51.716 358.4 11.7 354 16.1
2012-06-15 06:21:50 51°19.888 2°51.712 358.5 11.7 353 16
2012-06-15 06:21:55 51°19.904 2°51.709 357.6 11.7 353 15.6
2012-06-15 06:21:59 51°19.917 2°51.707 357.3 11.6 354 15.8
2012-06-15 06:22:05 51°19.936 2°51.704 357.9 11.6 353 15.9
2012-06-15 06:22:10 51°19.953 2°51.701 358 11.8 353 15.6
2012-06-15 06:22:15 51°19.969 2°51.698 357.9 11.8 354 15.2
2012-06-15 06:22:19 51°19.982 2°51.696 358.3 11.8 355 15.7
2012-06-15 06:22:25 51°20.002 2°51.694 358.9 11.9 356 15.3
2012-06-15 06:22:30 51°20.018 2°51.692 359.6 11.9 356 15
2012-06-15 06:22:35 51°20.035 2°51.69 359.7 11.9 357 15.3
2012-06-15 06:22:40 51°20.051 2°51.689 0.3 11.8 356 14.6
2012-06-15 06:22:45 51°20.067 2°51.687 0.5 11.8 357 13.9
2012-06-15 06:22:50 51°20.083 2°51.685 0.2 11.8 356 13.2
2012-06-15 06:22:55 51°20.1 2°51.683 359.7 11.9 356 13.8
2012-06-15 06:22:59 51°20.113 2°51.681 359.8 11.7 355 13.9
2012-06-15 06:23:05 51°20.132 2°51.679 359.6 11.8 355 14.1
2012-06-15 06:23:10 51°20.149 2°51.677 359.4 11.9 356 14.6
2012-06-15 06:23:15 51°20.165 2°51.675 359.4 12 356 14.1
2012-06-15 06:23:19 51°20.178 2°51.675 1.1 11.9 359 14
2012-06-15 06:23:25 51°20.198 2°51.674 2 11.8 358 14.3
2012-06-15 06:23:30 51°20.214 2°51.673 1.8 11.7 359 14.6
2012-06-15 06:23:35 51°20.231 2°51.673 2.2 11.8 359 14.6
2012-06-15 06:23:39 51°20.243 2°51.672 2.6 11.8 -999 14.3
2012-06-15 06:23:44 51°20.26 2°51.673 3.8 11.7 -999 14.2
2012-06-15 06:23:50 51°20.28 2°51.672 3.2 11.8 359 14
2012-06-15 06:23:55 51°20.296 2°51.672 2.9 11.8 359 13.9
2012-06-15 06:23:59 51°20.309 2°51.671 2.3 11.8 358 14
2012-06-15 06:24:04 51°20.325 2°51.669 1 11.8 357 14.3
2012-06-15 06:24:10 51°20.345 2°51.667 0.4 11.8 356 14.3
2012-06-15 06:24:15 51°20.361 2°51.665 359.1 11.7 355 13.9
2012-06-15 06:24:19 51°20.374 2°51.663 357.9 11.8 353 14.1
2012-06-15 06:24:24 51°20.391 2°51.66 357.7 11.8 354 14.1
2012-06-15 06:24:30 51°20.41 2°51.657 357.2 11.8 354 14.1
2012-06-15 06:24:35 51°20.426 2°51.654 357.8 11.8 355 14.6
2012-06-15 06:24:39 51°20.439 2°51.653 359.4 11.8 357 14.6
2012-06-15 06:24:45 51°20.459 2°51.652 0.1 11.9 358 14.6
2012-06-15 06:24:50 51°20.475 2°51.652 1.5 11.8 359 15
2012-06-15 06:24:55 51°20.492 2°51.651 2 11.9 358 15.1
2012-06-15 06:24:59 51°20.505 2°51.651 2.3 11.8 359 15.3
2012-06-15 06:25:05 51°20.525 2°51.649 1.8 11.8 357 15.7
2012-06-15 06:25:10 51°20.541 2°51.648 0.8 11.8 357 15.4
2012-06-15 06:25:15 51°20.557 2°51.646 -999 11.7 355 15.2
2012-06-15 06:25:19 51°20.57 2°51.644 359.2 11.8 355 15.4
2012-06-15 06:25:25 51°20.59 2°51.642 359 11.8 356 15.7
2012-06-15 06:25:30 51°20.606 2°51.64 359.5 11.9 357 15.6
2012-06-15 06:25:35 51°20.623 2°51.639 -999 11.9 358 15.7
2012-06-15 06:25:39 51°20.636 2°51.638 1.1 11.9 358 15.5
2012-06-15 06:25:44 51°20.652 2°51.637 1.4 11.7 357 15.4
2012-06-15 06:25:50 51°20.672 2°51.635 0.8 11.8 356 15.5
2012-06-15 06:25:55 51°20.688 2°51.633 0.1 11.8 356 15.2
2012-06-15 06:25:59 51°20.701 2°51.632 359.3 11.8 355 15.4
2012-06-15 06:26:04 51°20.717 2°51.629 358.6 11.7 355 15.7
2012-06-15 06:26:10 51°20.737 2°51.625 357.9 11.8 353 16.3
2012-06-15 06:26:15 51°20.753 2°51.623 357.2 11.8 354 16.6
2012-06-15 06:26:19 51°20.766 2°51.62 356.8 11.8 352 16.2
2012-06-15 06:26:25 51°20.785 2°51.615 355.5 11.7 352 16.2
2012-06-15 06:26:30 51°20.801 2°51.612 355.7 11.7 352 16.6
2012-06-15 06:26:35 51°20.817 2°51.607 355 11.8 351 17.1
2012-06-15 06:26:39 51°20.83 2°51.605 355 11.8 352 17.2
2012-06-15 06:26:45 51°20.85 2°51.6 355.1 11.8 351 17.5
2012-06-15 06:26:50 51°20.866 2°51.596 355.2 11.9 352 18.1
2012-06-15 06:26:55 51°20.882 2°51.593 355.7 11.8 353 17.7
2012-06-15 06:26:59 51°20.895 2°51.59 356.1 11.8 353 18
2012-06-15 06:27:05 51°20.915 2°51.586 356.2 11.7 353 18
2012-06-15 06:27:10 51°20.931 2°51.583 356.3 11.8 352 18.6
2012-06-15 06:27:15 51°20.947 2°51.58 356.5 11.8 354 18.6
2012-06-15 06:27:20 51°20.963 2°51.577 356.7 11.7 354 18.9
2012-06-15 06:27:24 51°20.976 2°51.575 357.5 11.8 354 18.8
2012-06-15 06:27:30 51°20.996 2°51.572 357.6 11.9 355 18.9
2012-06-15 06:27:35 51°21.012 2°51.57 357.9 11.8 355 18.7
2012-06-15 06:27:39 51°21.025 2°51.568 358.4 11.8 355 19.1
2012-06-15 06:27:45 51°21.045 2°51.565 358.6 11.9 356 19.3
2012-06-15 06:27:50 51°21.062 2°51.563 359 11.9 356 19.7
2012-06-15 06:27:55 51°21.078 2°51.562 359.3 11.9 357 19.9
2012-06-15 06:27:59 51°21.091 2°51.56 359.6 11.9 356 19.7
2012-06-15 06:28:05 51°21.111 2°51.558 359.7 11.9 357 20
2012-06-15 06:28:10 51°21.127 2°51.556 359.6 11.8 356 20.2
2012-06-15 06:28:15 51°21.144 2°51.555 -999 11.9 357 20.5
2012-06-15 06:28:19 51°21.157 2°51.554 0.1 12 357 20.9
2012-06-15 06:28:25 51°21.177 2°51.552 0.8 12 358 21
2012-06-15 06:28:30 51°21.194 2°51.551 1 11.9 357 21
2012-06-15 06:28:35 51°21.21 2°51.551 1.2 12 358 21.5
2012-06-15 06:28:39 51°21.223 2°51.549 1.2 11.9 358 21.7
2012-06-15 06:28:45 51°21.243 2°51.549 1.2 12 359 21.9
2012-06-15 06:28:50 51°21.26 2°51.548 1.8 12 358 21.9
2012-06-15 06:28:55 51°21.276 2°51.547 1.4 11.8 358 21.5
2012-06-15 06:28:59 51°21.289 2°51.547 2.4 11.7 -999 22.4
2012-06-15 06:29:05 51°21.309 2°51.547 3 11.9 359 22.7
2012-06-15 06:29:10 51°21.325 2°51.547 2.8 11.9 -999 22.7
2012-06-15 06:29:15 51°21.342 2°51.547 3.6 12 -999 22.7
2012-06-15 06:29:20 51°21.359 2°51.547 3.4 12 -999 22.9
2012-06-15 06:29:25 51°21.375 2°51.547 3.6 12 1 22.9
2012-06-15 06:29:30 51°21.392 2°51.547 3.9 11.9 1 23.1
2012-06-15 06:29:35 51°21.408 2°51.546 4.2 12 359 23.2
2012-06-15 06:29:39 51°21.422 2°51.547 3.5 12 -999 23.1
2012-06-15 06:29:45 51°21.441 2°51.547 3.8 11.9 359 23.6
2012-06-15 06:29:50 51°21.458 2°51.546 3.1 12 358 23.7
2012-06-15 06:29:55 51°21.475 2°51.545 1.3 12.1 358 24
2012-06-15 06:29:59 51°21.488 2°51.544 0.8 12 357 23.8
2012-06-15 06:30:05 51°21.508 2°51.542 0.7 11.9 357 23.9
2012-06-15 06:30:10 51°21.524 2°51.539 359.7 12.1 355 24.1
2012-06-15 06:30:15 51°21.541 2°51.536 358.6 12.1 355 24.4
2012-06-15 06:30:19 51°21.554 2°51.533 357.7 12.1 353 24.3
2012-06-15 06:30:24 51°21.571 2°51.53 357.1 12.1 354 24.4
2012-06-15 06:30:30 51°21.591 2°51.527 357.2 12.2 353 24.3
2012-06-15 06:30:35 51°21.608 2°51.524 357.3 12.1 354 24.5
2012-06-15 06:30:39 51°21.621 2°51.522 357.7 12.1 354 24.7
2012-06-15 06:30:45 51°21.641 2°51.519 357.6 12 353 24.5
2012-06-15 06:30:50 51°21.657 2°51.515 356.5 11.9 352 24.4
2012-06-15 06:30:55 51°21.674 2°51.513 356.9 12 355 24.6
2012-06-15 06:30:59 51°21.687 2°51.511 357.8 12 354 24.9
2012-06-15 06:31:05 51°21.707 2°51.507 357.8 12.1 355 25
2012-06-15 06:31:10 51°21.724 2°51.505 357.9 12.1 355 24.9
2012-06-15 06:31:15 51°21.741 2°51.503 358.4 12 356 24.7
2012-06-15 06:31:19 51°21.754 2°51.501 358.7 12 355 24.9
2012-06-15 06:31:25 51°21.774 2°51.499 358.7 11.9 356 24.6
2012-06-15 06:31:30 51°21.79 2°51.496 358.3 12 354 24.8
2012-06-15 06:31:35 51°21.807 2°51.493 357.6 11.9 355 24.8
2012-06-15 06:31:39 51°21.82 2°51.491 357.5 12.1 355 24.8
2012-06-15 06:31:45 51°21.84 2°51.489 358.5 12.1 356 24.8
2012-06-15 06:31:50 51°21.858 2°51.488 359.9 12.2 357 24.9
2012-06-15 06:31:55 51°21.875 2°51.487 0.9 12.2 358 24.9
2012-06-15 06:31:59 51°21.888 2°51.486 1.4 12.1 357 24.9
2012-06-15 06:32:05 51°21.908 2°51.485 0.8 12.1 357 24.7
2012-06-15 06:32:10 51°21.925 2°51.484 0.5 12.1 358 24.6
2012-06-15 06:32:15 51°21.942 2°51.483 0.8 12.1 357 24.6
2012-06-15 06:32:19 51°21.955 2°51.482 1.5 12.1 359 24.4
2012-06-15 06:32:25 51°21.975 2°51.482 1.7 12.1 358 24.6
2012-06-15 06:32:30 51°21.992 2°51.481 1.2 12.1 358 24.3
2012-06-15 06:32:35 51°22.009 2°51.481 1.2 12.1 -999 23.9
2012-06-15 06:32:39 51°22.022 2°51.481 2 12.1 -999 23.9
2012-06-15 06:32:44 51°22.039 2°51.48 2.5 11.9 -999 24
2012-06-15 06:32:50 51°22.059 2°51.48 3 11.8 -999 23.9
2012-06-15 06:32:55 51°22.075 2°51.479 2.7 11.9 358 24.5
2012-06-15 06:32:59 51°22.089 2°51.479 2.1 12 358 24.2
2012-06-15 06:33:04 51°22.105 2°51.477 1 11.9 356 24.2
2012-06-15 06:33:10 51°22.125 2°51.474 359.4 11.9 355 24.1
2012-06-15 06:33:15 51°22.141 2°51.471 357.9 11.9 353 24.1
2012-06-15 06:33:19 51°22.154 2°51.469 357.2 12 353 23.8
2012-06-15 06:33:25 51°22.174 2°51.464 356.3 11.9 352 23.9
2012-06-15 06:33:30 51°22.19 2°51.461 356 11.9 353 23.7
2012-06-15 06:33:35 51°22.206 2°51.457 356.3 11.8 353 24
2012-06-15 06:33:39 51°22.219 2°51.455 356.5 11.8 352 24.1
2012-06-15 06:33:45 51°22.239 2°51.452 356.7 11.9 354 23.9
2012-06-15 06:33:50 51°22.256 2°51.449 357.2 11.9 354 23.9
2012-06-15 06:33:55 51°22.272 2°51.447 358.2 11.9 355 23.8
2012-06-15 06:33:59 51°22.285 2°51.444 358.6 11.9 353 24.1
2012-06-15 06:34:05 51°22.305 2°51.441 357.9 11.8 353 24.3
2012-06-15 06:34:10 51°22.321 2°51.437 356.2 11.9 353 24.2
2012-06-15 06:34:15 51°22.337 2°51.435 357.1 11.9 355 24.3
2012-06-15 06:34:20 51°22.354 2°51.432 357.7 11.8 355 24.1
2012-06-15 06:34:25 51°22.37 2°51.43 358.6 11.7 356 24.1
2012-06-15 06:34:30 51°22.386 2°51.428 359.9 11.8 355 24.3
2012-06-15 06:34:35 51°22.403 2°51.426 359.8 11.7 356 24.1
2012-06-15 06:34:39 51°22.416 2°51.425 359.7 11.7 356 24.4
2012-06-15 06:34:45 51°22.436 2°51.423 0.1 11.9 357 24.1
2012-06-15 06:34:50 51°22.452 2°51.422 0.6 11.8 357 23.7
2012-06-15 06:34:55 51°22.468 2°51.421 1.6 11.8 359 23.7
2012-06-15 06:34:59 51°22.481 2°51.419 1.6 11.7 356 23.8
2012-06-15 06:35:05 51°22.501 2°51.418 1.1 11.7 356 23.4
2012-06-15 06:35:10 51°22.517 2°51.415 359.5 11.8 354 23.9
2012-06-15 06:35:15 51°22.534 2°51.413 358.6 11.8 355 23.8
2012-06-15 06:35:19 51°22.547 2°51.411 358.4 11.8 354 23.5
2012-06-15 06:35:25 51°22.566 2°51.408 358.6 11.9 355 23.4
2012-06-15 06:35:30 51°22.583 2°51.406 358.6 11.8 354 23.4
2012-06-15 06:35:35 51°22.599 2°51.402 357.6 11.8 352 23.8
2012-06-15 06:35:40 51°22.615 2°51.4 357.4 11.8 355 23.7
2012-06-15 06:35:44 51°22.628 2°51.398 357.9 11.9 353 23.9
2012-06-15 06:35:50 51°22.648 2°51.394 357.1 11.9 354 23.6
2012-06-15 06:35:55 51°22.664 2°51.391 357.5 11.8 354 23.5
2012-06-15 06:36:00 51°22.681 2°51.389 358.4 11.9 355 23.9
2012-06-15 06:36:05 51°22.697 2°51.388 359.1 12 357 23.7
2012-06-15 06:36:10 51°22.714 2°51.386 0.1 12 357 23.6
2012-06-15 06:36:15 51°22.73 2°51.385 0.4 11.9 357 23.8
2012-06-15 06:36:19 51°22.743 2°51.384 1.8 11.8 358 24
2012-06-15 06:36:25 51°22.763 2°51.383 1.9 12 358 23.9
2012-06-15 06:36:30 51°22.78 2°51.382 2.1 11.8 358 23.7
2012-06-15 06:36:35 51°22.796 2°51.381 2.1 11.9 359 23.7
2012-06-15 06:36:39 51°22.809 2°51.381 3.1 11.9 -999 23.5
2012-06-15 06:36:45 51°22.829 2°51.378 1.3 11.9 356 23.8
2012-06-15 06:36:50 51°22.846 2°51.377 359.8 12 355 23.3
2012-06-15 06:36:55 51°22.862 2°51.375 359.4 12 356 23.5
2012-06-15 06:36:59 51°22.875 2°51.373 359.5 11.9 355 23
2012-06-15 06:37:05 51°22.895 2°51.369 358.8 11.9 354 22.4
2012-06-15 06:37:10 51°22.911 2°51.366 357.9 11.9 353 23.3
2012-06-15 06:37:15 51°22.928 2°51.363 356.5 11.9 353 23.5
2012-06-15 06:37:20 51°22.944 2°51.36 357.2 11.9 354 23.1
2012-06-15 06:37:24 51°22.957 2°51.357 357.3 11.9 353 23.2
2012-06-15 06:37:30 51°22.977 2°51.355 357.9 12 356 22.8
2012-06-15 06:37:35 51°22.994 2°51.352 359 12 354 22.7
2012-06-15 06:37:39 51°23.007 2°51.35 358.7 11.8 354 21.1
2012-06-15 06:37:44 51°23.023 2°51.347 358.1 11.8 353 21
2012-06-15 06:37:50 51°23.042 2°51.344 357.5 11.9 353 20.7
2012-06-15 06:37:55 51°23.059 2°51.341 357 12 354 19.7
2012-06-15 06:37:59 51°23.072 2°51.339 357.9 11.8 354 19.1
2012-06-15 06:38:05 51°23.091 2°51.335 357.6 11.7 354 19.3
2012-06-15 06:38:10 51°23.107 2°51.333 357.6 11.7 355 18
2012-06-15 06:38:15 51°23.124 2°51.331 358.8 11.6 356 17.3
2012-06-15 06:38:20 51°23.14 2°51.33 0.1 11.6 357 17
2012-06-15 06:38:24 51°23.152 2°51.329 0.8 11.7 358 15.2
2012-06-15 06:38:30 51°23.172 2°51.329 1.9 11.5 359 15.3
2012-06-15 06:38:35 51°23.188 2°51.328 1.8 11.6 359 16.3
2012-06-15 06:38:40 51°23.204 2°51.328 2.3 11.6 -999 15.9
2012-06-15 06:38:45 51°23.219 2°51.327 2.8 11.4 358 15.6
2012-06-15 06:38:50 51°23.235 2°51.326 1.9 11.5 357 14.5
2012-06-15 06:38:55 51°23.251 2°51.325 1.4 11.4 358 15.6
2012-06-15 06:38:59 51°23.264 2°51.324 0.7 11.4 357 14.2
2012-06-15 06:39:05 51°23.283 2°51.321 0.1 11.5 354 14.7
2012-06-15 06:39:10 51°23.299 2°51.319 358.6 11.5 355 15.4
2012-06-15 06:39:15 51°23.315 2°51.316 357.9 11.5 354 15.9
2012-06-15 06:39:19 51°23.327 2°51.314 357.3 11.5 354 16.2
2012-06-15 06:39:25 51°23.346 2°51.311 357.7 11.6 355 16.5
2012-06-15 06:39:30 51°23.362 2°51.309 358.1 11.5 355 16.5
2012-06-15 06:39:35 51°23.378 2°51.305 356.9 11.3 351 16
2012-06-15 06:39:39 51°23.391 2°51.303 356.5 11.3 354 15.6
2012-06-15 06:39:45 51°23.409 2°51.3 356.7 11.5 353 16.4
2012-06-15 06:39:50 51°23.425 2°51.297 356.3 11.5 355 15.1
2012-06-15 06:39:55 51°23.441 2°51.293 356.1 11.5 352 16.4
2012-06-15 06:39:59 51°23.453 2°51.29 355.5 11.5 352 16.8
2012-06-15 06:40:05 51°23.472 2°51.286 355.6 11.6 353 17.3
2012-06-15 06:40:10 51°23.488 2°51.283 355.9 11.5 352 17
2012-06-15 06:40:15 51°23.504 2°51.28 356 11.6 352 17.1
2012-06-15 06:40:19 51°23.517 2°51.277 355.7 11.6 353 17
2012-06-15 06:40:25 51°23.536 2°51.273 355.9 11.4 352 17.4
2012-06-15 06:40:30 51°23.552 2°51.269 356.2 11.6 352 17.6
2012-06-15 06:40:35 51°23.568 2°51.266 356.1 11.6 353 17.5
2012-06-15 06:40:40 51°23.584 2°51.263 356.6 11.4 353 16.9
2012-06-15 06:40:44 51°23.596 2°51.261 356.5 11.5 353 17.7
2012-06-15 06:40:50 51°23.615 2°51.257 356.4 11.5 353 17.2
2012-06-15 06:40:55 51°23.631 2°51.254 356.5 11.5 354 16.5
2012-06-15 06:40:59 51°23.644 2°51.252 357.2 11.6 353 17.6
2012-06-15 06:41:05 51°23.663 2°51.25 357.9 11.6 357 18.1
2012-06-15 06:41:10 51°23.679 2°51.249 359.7 11.5 356 18.5
2012-06-15 06:41:15 51°23.695 2°51.247 0.3 11.6 357 18.9
2012-06-15 06:41:19 51°23.708 2°51.247 1.7 11.5 359 19.1
2012-06-15 06:41:25 51°23.727 2°51.246 1.9 11.5 359 18.9
2012-06-15 06:41:30 51°23.743 2°51.246 2.2 11.5 359 19.1
2012-06-15 06:41:35 51°23.76 2°51.245 2.5 11.7 358 19.5
2012-06-15 06:41:39 51°23.772 2°51.244 1.6 11.7 358 19.4
2012-06-15 06:41:45 51°23.792 2°51.243 1.7 11.7 359 19.6
2012-06-15 06:41:50 51°23.808 2°51.243 2.2 11.8 359 19.1
2012-06-15 06:41:55 51°23.825 2°51.243 3.4 11.7 -999 19.1
2012-06-15 06:41:59 51°23.837 2°51.244 3.2 11.7 -999 20
2012-06-15 06:42:05 51°23.857 2°51.243 2.9 11.7 359 18.6
2012-06-15 06:42:10 51°23.873 2°51.242 2.5 11.6 359 18.6
2012-06-15 06:42:15 51°23.889 2°51.241 1.8 11.5 357 20.2
2012-06-15 06:42:19 51°23.902 2°51.24 1.5 11.6 358 20.7
2012-06-15 06:42:24 51°23.918 2°51.239 1.2 11.6 358 20.5
2012-06-15 06:42:30 51°23.937 2°51.238 0.8 11.7 357 20.8
2012-06-15 06:42:35 51°23.954 2°51.236 0.1 11.8 356 21.3
2012-06-15 06:42:40 51°23.97 2°51.234 359.4 11.8 356 20.8
2012-06-15 06:42:44 51°23.983 2°51.232 358.9 11.7 356 20.8
2012-06-15 06:42:50 51°24.003 2°51.23 358.6 11.7 356 20.1
2012-06-15 06:42:55 51°24.019 2°51.229 359 11.7 357 19.3
2012-06-15 06:42:59 51°24.032 2°51.227 0.3 11.7 357 19.9
2012-06-15 06:43:05 51°24.051 2°51.226 0.7 11.7 358 20.2
2012-06-15 06:43:10 51°24.067 2°51.225 1.2 11.6 358 20.9
2012-06-15 06:43:15 51°24.084 2°51.224 1.4 11.7 358 21.3
2012-06-15 06:43:19 51°24.096 2°51.223 0.7 11.7 356 19.8
2012-06-15 06:43:25 51°24.116 2°51.22 359.5 11.7 355 18.6
2012-06-15 06:43:30 51°24.132 2°51.218 358.1 11.8 355 20.2
2012-06-15 06:43:35 51°24.148 2°51.217 358.6 11.7 357 21
2012-06-15 06:43:39 51°24.161 2°51.216 -999 11.8 357 21.3
2012-06-15 06:43:45 51°24.181 2°51.215 0.2 11.7 358 21.5
2012-06-15 06:43:50 51°24.197 2°51.214 1.2 11.8 359 22.1